LFBALFCK

Guest
Details From LFBA - Agen la Garenne
To LFCK - Mazamet
Flight Number -
Tags generated
Created
Modified
Stats Distance 83 nm / 153 km
Max Altitude 3,100 ft / 945 m
Waypoints 3
Social Downloads 0
Likes 0
Share VATSIM

Download

Looking for another format? Having issues loading an existing format? Contact us
Advertisement - Login to hide

Notes

Basic altitude profile: - Ascent Rate: 2500ft/min - Ascent Speed: 250kts - Cruise Altitude: 35000ft - Cruise Speed: 420kts - Descent Rate: 1500ft/min - Descent Speed: 250kts Options: - Use NATs: yes - Use PACOTS: yes - Use low airways: yes - Use high airways: yes

Route

LFBA FINOT LFCK

ID Type Via Altitude Latitude Longitude Leg Dist Tot Dist Heading (true) Name
O LFBA APT - 0 ft / 0 m 44.17403˚ 0.59296˚ - 0 nm - Agen la Garenne
FINOT FIX - 3,100 ft / 945 m 43.71508˚ 2.02989˚ 67 nm 67 nm 113° / 114° -
O LFCK APT - 0 ft / 0 m 43.55625˚ 2.28918˚ 14 nm 82 nm 130° / 130° Mazamet

Altitude Profile

Advertisement - Login to hide

LFBA

Details ICAO LFBA (AGF)
Name Agen la Garenne
Region France
Timezone Europe/Paris (UTC+1.0)
Stats Elevation 204 ft / 62 m (AMSL)
Location 44.174025° 0.592961°
Runways 1
Magnetic Variation 0.343° E

METAR

LFBA 181430Z AUTO 28008KT 3900 -RA BR OVC007 11/10 Q1023 BECMG 36010KT CAVOK

Decode

TAF

Not found

Departure Runways

ID Width Length Bearing (true) Bearing (mag) Surface Threshold Offset Overrun Length
11 98 ft / 30 m 7,088 ft / 2,161 m 112.24° 111.90° Asphalt 541 ft / 165 m 0 ft / 0 m
29 98 ft / 30 m 7,088 ft / 2,161 m 292.26° 291.92° Asphalt 1,312 ft / 400 m 0 ft / 0 m

LFCK

Details ICAO LFCK (DCM)
Name Mazamet
Region France
Timezone Europe/Paris (UTC+1.0)
Stats Elevation 788 ft / 240 m (AMSL)
Location 43.556250° 2.289182°
Runways 1
Magnetic Variation 0.823° E

METAR

LFCK 181430Z AUTO 27017KT 5000 DZ BR OVC004 08/07 Q1022 TEMPO 27018G30KT 2000 RA BECMG SCT011 BKN035

Decode

TAF

Not found

Destination Runways

ID Width Length Bearing (true) Bearing (mag) Surface Threshold Offset Overrun Length
14 98 ft / 30 m 5,993 ft / 1,827 m 141.33° 140.51° Concrete 509 ft / 155 m 0 ft / 0 m
32 98 ft / 30 m 5,993 ft / 1,827 m 321.34° 320.52° Concrete 0 ft / 0 m 0 ft / 0 m

Approach Navaids

Runway Type Ident Frequency Range Bearing (true) Bearing (mag) Slope Elevation
14 Localiser EN 111.35 MHz 18 nm / 33 km 141.34° 140.52° - 790 ft / 241 m (AMSL)
14 Glidescope EN 111.35 MHz 10 nm / 19 km 141.33° 140.51° 3.50° 726 ft / 221 m (AMSL)
14 DME EN 111.35 MHz 18 nm / 33 km - - - 726 ft / 221 m (AMSL)